Soleil Weather Down

Nearby METAR Reports

 

KCNI - Canton/Cherokee, Georgia, USA
Distance from station: ENE 6mi, 10km
Updated: Sat, 18-Aug-2018 5:35pm EDT
Clear
Clear
 Wind from SW
Wind: SW 7 mph , 11 km/h
Temperature: 82°F , 28°C
Heat Index: 85°F , 29°C
Dew Point: 68°F , 20°C
Humidity: 62%
Barometer: 29.98 inHg , 1015.2 hPa
Clouds: Clear
Visibility: 10 miles , 16 km
2018/08/18 21:35 KCNI 182135Z AUTO 23006KT 10SM CLR 28/20 A2998 RMK AO2
KRYY - Marietta Mccolum, Georgia, USA
Distance from station: SSW 18mi, 29km
Updated: Sat, 18-Aug-2018 5:48pm EDT
Light rain, Overcast
Light rain, Overcast
 Wind from SW
Wind: SW 9 mph , 15 km/h
Temperature: 81°F , 27°C
Heat Index: 86°F , 30°C
Dew Point: 73°F , 23°C
Humidity: 79%
Barometer: 29.98 inHg , 1015.2 hPa
Summary: Light rain
Clouds: Overcast
Visibility: 10 miles , 16 km
Cloud details: Few Clouds 1800 ft
Mostly cloudy 3600 ft
Overcast 4900 ft
2018/08/18 21:48 KRYY 182148Z 22008KT 180V260 10SM -RA FEW018 BKN036 OVC049 27/23 A2998 RMK AO2 LTG DSNT SE TSB2051E14RAB33 SLP873 P0000 T02670233
KVPC - Cartersville, Georgia, USA
Distance from station: WSW 22mi, 35km
Updated: Sat, 18-Aug-2018 4:53pm EDT
Few Clouds
Few Clouds
 Wind from varies
Wind: varies 6 mph , 9 km/h
Temperature: 84°F , 29°C
Heat Index: 89°F , 32°C
Dew Point: 72°F , 22°C
Humidity: 66%
Barometer: 29.97 inHg , 1014.9 hPa
Clouds: Few Clouds
Visibility: 10 miles , 16 km
Cloud details: Few Clouds 8000 ft
2018/08/18 20:53 KVPC 182053Z AUTO VRB05KT 10SM FEW080 29/22 A2997 RMK AO2 LTG DSNT SE AND S SLP135 T02940222 56021
 
KMGE - Dobbins Afb/Mari, Georgia, USA
Distance from station: S 24mi, 39km
Updated: Sat, 18-Aug-2018 5:22pm EDT
Mostly cloudy
Mostly cloudy
 Wind from varies
Wind: varies 5 mph , 7 km/h
Temperature: 77°F , 25°C
Dew Point: 73°F , 23°C
Humidity: 89%
Barometer: 29.97 inHg , 1014.9 hPa
Clouds: Mostly cloudy
Visibility: 10 miles , 16 km
Cloud details: Few Clouds 1500 ft
Mostly cloudy 3500 ft
Mostly cloudy 25000 ft
2018/08/18 21:22 KMGE 182122Z VRB04KT 10SM FEW015 BKN035CB BKN250 25/23 A2997 RMK AO2A CB 12SE MOV E PRESFR $
KPDK - Peachtree/Dekalb, Georgia, USA
Distance from station: SSE 29mi, 47km
Updated: Sat, 18-Aug-2018 5:26pm EDT
Mostly cloudy
Mostly cloudy
 Wind from SW
Wind: SW 9 mph , 15 km/h
Temperature: 77°F , 25°C
Dew Point: 73°F , 23°C
Humidity: 89%
Barometer: 29.98 inHg , 1015.2 hPa
Clouds: Mostly cloudy
Visibility: 10 miles , 16 km
Cloud details: Few Clouds 4000 ft
Mostly cloudy 7500 ft
Mostly cloudy 9000 ft
2018/08/18 21:26 KPDK 182126Z 22008KT 10SM FEW040 BKN075 BKN090 25/23 A2998 RMK AO2 LTG DSNT E-SW T02500233
KFTY - Atlanta/Fulton, Georgia, USA
Distance from station: S 34mi, 54km
Updated: Sat, 18-Aug-2018 5:28pm EDT
Few Clouds
Few Clouds
 Wind from WSW
Wind: WSW 5 mph , 7 km/h
Temperature: 79°F , 26°C
Dew Point: 75°F , 24°C
Humidity: 89%
Barometer: 29.97 inHg , 1014.9 hPa
Clouds: Few Clouds
Visibility: 10 miles , 16 km
Cloud details: Few Clouds 4900 ft
Few Clouds 7000 ft
2018/08/18 21:28 KFTY 182128Z 24004KT 10SM FEW049 FEW070 26/24 A2997 RMK AO2 LTG DSNT E-S TSB05E22 T02610244
 
KPUJ - Atlanta/Paulding, Georgia, USA
Distance from station: SW 34mi, 55km
Updated: Sat, 18-Aug-2018 5:35pm EDT
Mostly cloudy
Mostly cloudy
 Wind from WSW
Wind: WSW 7 mph , 11 km/h
Temperature: 79°F , 26°C
Dew Point: 75°F , 24°C
Humidity: 89%
Barometer: 29.99 inHg , 1015.6 hPa
Clouds: Mostly cloudy
Visibility: 7 miles , 11 km
Cloud details: Partly cloudy 3000 ft
Partly cloudy 4200 ft
Mostly cloudy 8000 ft
2018/08/18 21:35 KPUJ 182135Z AUTO 24006KT 7SM SCT030 SCT042 BKN080 26/24 A2999 RMK AO2 LTG DSNT E AND SE
KDNN - Dalton, Georgia, USA
Distance from station: NW 37mi, 59km
Updated: Sat, 18-Aug-2018 5:35pm EDT
Partly cloudy
Partly cloudy
 Wind from calm
Wind: Calm
Temperature: 82°F , 28°C
Heat Index: 89°F , 32°C
Dew Point: 75°F , 24°C
Humidity: 79%
Barometer: 29.96 inHg , 1014.6 hPa
Clouds: Partly cloudy
Visibility: 10 miles , 16 km
Cloud details: Partly cloudy 5500 ft
Partly cloudy 6500 ft
2018/08/18 21:35 KDNN 182135Z AUTO 00000KT 10SM SCT055 SCT065 28/24 A2996 RMK AO2 P0001 LTG DSNT SE
KLZU - Lawrenceville, Georgia, USA
Distance from station: ESE 37mi, 59km
Updated: Sat, 18-Aug-2018 4:56pm EDT
Nearby thunderstorm, Light rain, Mostly cloudy
Nearby thunderstorm, Light rain, Mostly cloudy
 Wind from WSW
Wind: WSW 8 mph , 13 km/h
Temperature: 75°F , 24°C
Dew Point: 73°F , 23°C
Humidity: 94%
Barometer: 30.01 inHg , 1016.3 hPa
Summary: Nearby thunderstorm, Light rain
Clouds: Mostly cloudy
Visibility: 10 miles , 16 km
Cloud details: Few Clouds 900 ft
Mostly cloudy 2300 ft
Mostly cloudy 4700 ft
2018/08/18 20:56 KLZU 182056Z 24007KT 10SM VCTS -RA FEW009 BKN023 BKN047 24/23 A3001 RMK AO2 LTG DSNT ALQDS TSB10E21B23RAB14 SLP152 P0014 60014 T02440233 55003 $
 
KRMG - Rome, Georgia, USA
Distance from station: W 38mi, 61km
Updated: Sat, 18-Aug-2018 5:30pm EDT
Light rain, Mostly cloudy
Light rain, Mostly cloudy
 Wind from varies
Wind: varies 3 mph , 6 km/h
Temperature: 79°F , 26°C
Dew Point: 73°F , 23°C
Humidity: 84%
Barometer: 29.94 inHg , 1013.9 hPa
Summary: Light rain
Clouds: Mostly cloudy
Visibility: 9 miles , 14 km
Cloud details: Few Clouds 700 ft
Mostly cloudy 3200 ft
Mostly cloudy 4500 ft
2018/08/18 21:30 KRMG 182130Z AUTO VRB03KT 9SM -RA FEW007 BKN032 BKN045 26/23 A2994 RMK AO2 RAB00 P0048 T02560228
KGVL - Gainesville, Georgia, USA
Distance from station: E 39mi, 62km
Updated: Sat, 18-Aug-2018 5:39pm EDT
Overcast
Overcast
 Wind from SW
Wind: SW 6 mph , 9 km/h
Temperature: 79°F , 26°C
Dew Point: 75°F , 24°C
Humidity: 89%
Barometer: 30.00 inHg , 1015.9 hPa
Clouds: Overcast
Visibility: 10 miles , 16 km
Cloud details: Partly cloudy 2000 ft
Partly cloudy 3200 ft
Overcast 8000 ft
2018/08/18 21:39 KGVL 182139Z AUTO 23005KT 10SM SCT020 SCT032 OVC080 26/24 A3000 RMK AO2 LTG DSNT NE-S RAB24E39 P0000 T02560239
KATL - Atlanta, Georgia, USA
Distance from station: S 44mi, 71km
Updated: Sat, 18-Aug-2018 5:38pm EDT
Mostly cloudy
Mostly cloudy
 Wind from SSW
Wind: SSW 13 mph , 20 km/h
Temperature: 75°F , 24°C
Dew Point: 72°F , 22°C
Humidity: 89%
Barometer: 30.00 inHg , 1015.9 hPa
Clouds: Mostly cloudy
Visibility: 10 miles , 16 km
Cloud details: Few Clouds 800 ft
Partly cloudy 3200 ft
Mostly cloudy 7500 ft
Mostly cloudy 14000 ft
2018/08/18 21:38 KATL 182138Z 20011KT 10SM FEW008 SCT032 BKN075 BKN140 24/22 A3000 RMK AO2 LTG DSNT ALQDS RAE35 TSE35 FRQ LTGICCA DSNT SE-SW CB DSNT ALQDS TCU DSNT N P0023 T02390217